sensor_id;sensor_type;location;lat;lon;timestamp;temperature;humidity
680;DHT22;322;48.846;9.230;2023-04-25T00:02:07;9.10;84.40
680;DHT22;322;48.846;9.230;2023-04-25T00:04:35;9.00;84.60
680;DHT22;322;48.846;9.230;2023-04-25T00:07:03;8.90;86.50
680;DHT22;322;48.846;9.230;2023-04-25T00:09:31;8.90;87.10
680;DHT22;322;48.846;9.230;2023-04-25T00:11:58;8.80;87.00
680;DHT22;322;48.846;9.230;2023-04-25T00:14:26;8.80;87.10
680;DHT22;322;48.846;9.230;2023-04-25T00:16:54;8.80;88.90
680;DHT22;322;48.846;9.230;2023-04-25T00:19:21;8.70;89.70
680;DHT22;322;48.846;9.230;2023-04-25T00:21:49;8.70;89.30
680;DHT22;322;48.846;9.230;2023-04-25T00:24:16;8.70;89.30
680;DHT22;322;48.846;9.230;2023-04-25T00:26:43;8.80;87.60
680;DHT22;322;48.846;9.230;2023-04-25T00:29:10;8.70;87.20
680;DHT22;322;48.846;9.230;2023-04-25T00:31:36;8.80;89.20
680;DHT22;322;48.846;9.230;2023-04-25T00:34:03;8.70;90.00
680;DHT22;322;48.846;9.230;2023-04-25T00:36:30;8.60;90.20
680;DHT22;322;48.846;9.230;2023-04-25T00:38:58;8.70;89.40
680;DHT22;322;48.846;9.230;2023-04-25T00:41:26;8.80;88.50
680;DHT22;322;48.846;9.230;2023-04-25T00:43:54;8.70;88.10
680;DHT22;322;48.846;9.230;2023-04-25T00:46:21;8.70;88.50
680;DHT22;322;48.846;9.230;2023-04-25T00:48:48;8.70;87.30
680;DHT22;322;48.846;9.230;2023-04-25T00:51:19;8.70;88.30
680;DHT22;322;48.846;9.230;2023-04-25T00:53:45;8.60;87.00
680;DHT22;322;48.846;9.230;2023-04-25T00:56:14;8.70;87.60
680;DHT22;322;48.846;9.230;2023-04-25T00:58:41;8.80;87.40
680;DHT22;322;48.846;9.230;2023-04-25T01:01:08;8.80;89.80
680;DHT22;322;48.846;9.230;2023-04-25T01:03:37;8.70;90.80
680;DHT22;322;48.846;9.230;2023-04-25T01:06:07;8.70;89.10
680;DHT22;322;48.846;9.230;2023-04-25T01:08:34;8.70;87.20
680;DHT22;322;48.846;9.230;2023-04-25T01:11:00;8.70;86.80
680;DHT22;322;48.846;9.230;2023-04-25T01:13:29;8.70;87.30
680;DHT22;322;48.846;9.230;2023-04-25T01:15:57;8.70;86.80
680;DHT22;322;48.846;9.230;2023-04-25T01:18:24;8.60;87.70
680;DHT22;322;48.846;9.230;2023-04-25T01:20:51;8.70;86.80
680;DHT22;322;48.846;9.230;2023-04-25T01:23:20;8.60;87.20
680;DHT22;322;48.846;9.230;2023-04-25T01:25:47;8.70;86.50
680;DHT22;322;48.846;9.230;2023-04-25T01:28:14;8.70;86.60
680;DHT22;322;48.846;9.230;2023-04-25T01:30:41;8.80;86.60
680;DHT22;322;48.846;9.230;2023-04-25T01:33:08;8.80;87.40
680;DHT22;322;48.846;9.230;2023-04-25T01:35:35;8.80;86.50
680;DHT22;322;48.846;9.230;2023-04-25T01:38:02;8.70;86.00
680;DHT22;322;48.846;9.230;2023-04-25T01:40:30;8.60;87.50
680;DHT22;322;48.846;9.230;2023-04-25T01:42:58;8.50;86.00
680;DHT22;322;48.846;9.230;2023-04-25T01:45:24;8.40;87.60
680;DHT22;322;48.846;9.230;2023-04-25T01:47:51;8.50;87.10
680;DHT22;322;48.846;9.230;2023-04-25T01:50:19;8.50;87.60
680;DHT22;322;48.846;9.230;2023-04-25T01:52:45;8.50;87.50
680;DHT22;322;48.846;9.230;2023-04-25T01:55:12;8.50;88.00
680;DHT22;322;48.846;9.230;2023-04-25T01:57:40;8.50;89.10
680;DHT22;322;48.846;9.230;2023-04-25T02:00:08;8.50;88.50
680;DHT22;322;48.846;9.230;2023-04-25T02:02:35;8.50;87.90
680;DHT22;322;48.846;9.230;2023-04-25T02:05:02;8.50;88.00
680;DHT22;322;48.846;9.230;2023-04-25T02:07:29;8.60;86.90
680;DHT22;322;48.846;9.230;2023-04-25T02:09:56;8.70;87.60
680;DHT22;322;48.846;9.230;2023-04-25T02:12:23;8.70;85.70
680;DHT22;322;48.846;9.230;2023-04-25T02:14:53;8.80;85.10
680;DHT22;322;48.846;9.230;2023-04-25T02:17:19;8.80;84.90
680;DHT22;322;48.846;9.230;2023-04-25T02:19:47;8.80;84.00
680;DHT22;322;48.846;9.230;2023-04-25T02:22:14;8.80;85.00
680;DHT22;322;48.846;9.230;2023-04-25T02:24:41;8.80;84.60
680;DHT22;322;48.846;9.230;2023-04-25T02:27:07;8.80;86.00
680;DHT22;322;48.846;9.230;2023-04-25T02:29:35;8.80;85.80
680;DHT22;322;48.846;9.230;2023-04-25T02:32:03;8.70;88.90
680;DHT22;322;48.846;9.230;2023-04-25T02:34:30;8.50;90.10
680;DHT22;322;48.846;9.230;2023-04-25T02:36:57;8.30;91.20
680;DHT22;322;48.846;9.230;2023-04-25T02:39:24;8.20;92.50
680;DHT22;322;48.846;9.230;2023-04-25T02:41:52;8.10;91.80
680;DHT22;322;48.846;9.230;2023-04-25T02:44:19;8.00;92.30
680;DHT22;322;48.846;9.230;2023-04-25T02:46:46;7.90;93.00
680;DHT22;322;48.846;9.230;2023-04-25T02:49:14;7.90;92.90
680;DHT22;322;48.846;9.230;2023-04-25T02:51:41;7.90;93.20
680;DHT22;322;48.846;9.230;2023-04-25T02:54:08;7.90;93.50
680;DHT22;322;48.846;9.230;2023-04-25T02:56:35;7.90;93.90
680;DHT22;322;48.846;9.230;2023-04-25T02:59:02;7.90;93.20
680;DHT22;322;48.846;9.230;2023-04-25T03:01:28;7.90;93.20
680;DHT22;322;48.846;9.230;2023-04-25T03:03:55;7.90;93.10
680;DHT22;322;48.846;9.230;2023-04-25T03:06:23;7.90;93.00
680;DHT22;322;48.846;9.230;2023-04-25T03:08:50;7.90;93.10
680;DHT22;322;48.846;9.230;2023-04-25T03:11:17;7.90;93.30
680;DHT22;322;48.846;9.230;2023-04-25T03:13:45;8.00;93.30
680;DHT22;322;48.846;9.230;2023-04-25T03:16:12;7.90;93.80
680;DHT22;322;48.846;9.230;2023-04-25T03:18:39;7.90;94.40
680;DHT22;322;48.846;9.230;2023-04-25T03:21:06;7.90;94.00
680;DHT22;322;48.846;9.230;2023-04-25T03:23:34;7.80;94.00
680;DHT22;322;48.846;9.230;2023-04-25T03:26:01;7.80;93.90
680;DHT22;322;48.846;9.230;2023-04-25T03:28:28;7.80;94.00
680;DHT22;322;48.846;9.230;2023-04-25T03:30:54;7.80;94.20
680;DHT22;322;48.846;9.230;2023-04-25T03:33:21;7.80;94.10
680;DHT22;322;48.846;9.230;2023-04-25T03:35:48;7.70;94.30
680;DHT22;322;48.846;9.230;2023-04-25T03:38:16;7.60;95.30
680;DHT22;322;48.846;9.230;2023-04-25T03:40:44;7.60;95.80
680;DHT22;322;48.846;9.230;2023-04-25T03:43:11;7.60;95.50
680;DHT22;322;48.846;9.230;2023-04-25T03:45:38;7.60;95.10
680;DHT22;322;48.846;9.230;2023-04-25T03:48:05;7.60;94.40
680;DHT22;322;48.846;9.230;2023-04-25T03:50:31;7.70;94.20
680;DHT22;322;48.846;9.230;2023-04-25T03:52:58;7.80;93.90
680;DHT22;322;48.846;9.230;2023-04-25T03:55:25;7.90;93.90
680;DHT22;322;48.846;9.230;2023-04-25T03:57:53;7.90;94.00
680;DHT22;322;48.846;9.230;2023-04-25T04:00:20;8.00;93.70
680;DHT22;322;48.846;9.230;2023-04-25T04:02:47;8.00;93.80
680;DHT22;322;48.846;9.230;2023-04-25T04:05:13;8.10;94.00
680;DHT22;322;48.846;9.230;2023-04-25T04:07:40;8.00;93.40
680;DHT22;322;48.846;9.230;2023-04-25T04:10:09;8.00;93.00
680;DHT22;322;48.846;9.230;2023-04-25T04:12:36;7.90;93.70
680;DHT22;322;48.846;9.230;2023-04-25T04:15:06;7.90;92.50
680;DHT22;322;48.846;9.230;2023-04-25T04:17:33;7.90;92.50
680;DHT22;322;48.846;9.230;2023-04-25T04:20:00;7.90;92.40
680;DHT22;322;48.846;9.230;2023-04-25T04:22:27;7.90;92.50
680;DHT22;322;48.846;9.230;2023-04-25T04:24:53;8.00;92.30
680;DHT22;322;48.846;9.230;2023-04-25T04:27:22;8.00;92.40
680;DHT22;322;48.846;9.230;2023-04-25T04:29:50;8.00;92.80
680;DHT22;322;48.846;9.230;2023-04-25T04:32:19;7.90;92.50
680;DHT22;322;48.846;9.230;2023-04-25T04:34:45;7.90;92.90
680;DHT22;322;48.846;9.230;2023-04-25T04:37:14;7.90;92.30
680;DHT22;322;48.846;9.230;2023-04-25T04:39:41;8.00;92.30
680;DHT22;322;48.846;9.230;2023-04-25T04:42:08;8.10;92.10
680;DHT22;322;48.846;9.230;2023-04-25T04:44:36;8.10;91.80
680;DHT22;322;48.846;9.230;2023-04-25T04:47:04;8.10;92.00
680;DHT22;322;48.846;9.230;2023-04-25T04:49:33;8.30;92.00
680;DHT22;322;48.846;9.230;2023-04-25T04:52:00;8.30;92.10
680;DHT22;322;48.846;9.230;2023-04-25T04:54:26;8.40;90.80
680;DHT22;322;48.846;9.230;2023-04-25T04:56:53;8.40;91.10
680;DHT22;322;48.846;9.230;2023-04-25T04:59:20;8.30;90.90
680;DHT22;322;48.846;9.230;2023-04-25T05:01:47;8.30;91.40
680;DHT22;322;48.846;9.230;2023-04-25T05:04:14;8.40;91.10
680;DHT22;322;48.846;9.230;2023-04-25T05:06:42;8.40;90.90
680;DHT22;322;48.846;9.230;2023-04-25T05:09:09;8.50;90.40
680;DHT22;322;48.846;9.230;2023-04-25T05:11:36;8.50;91.10
680;DHT22;322;48.846;9.230;2023-04-25T05:14:03;8.60;90.70
680;DHT22;322;48.846;9.230;2023-04-25T05:16:30;8.70;90.40
680;DHT22;322;48.846;9.230;2023-04-25T05:18:57;8.80;90.20
680;DHT22;322;48.846;9.230;2023-04-25T05:21:23;8.90;90.60
680;DHT22;322;48.846;9.230;2023-04-25T05:23:52;9.00;89.50
680;DHT22;322;48.846;9.230;2023-04-25T05:26:19;9.10;87.00
680;DHT22;322;48.846;9.230;2023-04-25T05:28:46;9.20;87.10
680;DHT22;322;48.846;9.230;2023-04-25T05:31:13;9.20;87.50
680;DHT22;322;48.846;9.230;2023-04-25T05:33:39;9.10;89.10
680;DHT22;322;48.846;9.230;2023-04-25T05:36:07;8.90;90.00
680;DHT22;322;48.846;9.230;2023-04-25T05:38:34;8.70;91.70
680;DHT22;322;48.846;9.230;2023-04-25T05:41:02;8.50;92.00
680;DHT22;322;48.846;9.230;2023-04-25T05:43:29;8.40;92.50
680;DHT22;322;48.846;9.230;2023-04-25T05:45:56;8.30;92.70
680;DHT22;322;48.846;9.230;2023-04-25T05:48:23;8.20;93.00
680;DHT22;322;48.846;9.230;2023-04-25T05:50:50;8.20;93.70
680;DHT22;322;48.846;9.230;2023-04-25T05:53:17;8.10;94.60
680;DHT22;322;48.846;9.230;2023-04-25T05:55:44;8.20;94.20
680;DHT22;322;48.846;9.230;2023-04-25T05:58:12;8.20;94.10
680;DHT22;322;48.846;9.230;2023-04-25T06:00:39;8.20;94.30
680;DHT22;322;48.846;9.230;2023-04-25T06:03:06;8.20;93.40
680;DHT22;322;48.846;9.230;2023-04-25T06:05:35;8.20;94.10
680;DHT22;322;48.846;9.230;2023-04-25T06:08:02;8.30;93.40
680;DHT22;322;48.846;9.230;2023-04-25T06:10:29;8.30;92.80
680;DHT22;322;48.846;9.230;2023-04-25T06:12:55;8.30;93.20
680;DHT22;322;48.846;9.230;2023-04-25T06:15:24;8.30;92.90
680;DHT22;322;48.846;9.230;2023-04-25T06:17:50;8.30;93.60
680;DHT22;322;48.846;9.230;2023-04-25T06:20:17;8.40;93.90
680;DHT22;322;48.846;9.230;2023-04-25T06:22:48;8.50;93.90
680;DHT22;322;48.846;9.230;2023-04-25T06:25:15;8.50;92.30
680;DHT22;322;48.846;9.230;2023-04-25T06:27:42;8.60;92.20
680;DHT22;322;48.846;9.230;2023-04-25T06:30:10;8.60;92.10
680;DHT22;322;48.846;9.230;2023-04-25T06:32:39;8.70;91.60
680;DHT22;322;48.846;9.230;2023-04-25T06:35:06;8.90;91.00
680;DHT22;322;48.846;9.230;2023-04-25T06:37:33;9.10;91.00
680;DHT22;322;48.846;9.230;2023-04-25T06:40:00;9.30;91.20
680;DHT22;322;48.846;9.230;2023-04-25T06:42:28;9.50;90.00
680;DHT22;322;48.846;9.230;2023-04-25T06:44:54;9.70;88.10
680;DHT22;322;48.846;9.230;2023-04-25T06:47:21;9.90;88.20
680;DHT22;322;48.846;9.230;2023-04-25T06:49:50;10.20;83.20
680;DHT22;322;48.846;9.230;2023-04-25T06:52:16;10.30;82.20
680;DHT22;322;48.846;9.230;2023-04-25T06:54:44;10.30;81.80
680;DHT22;322;48.846;9.230;2023-04-25T06:57:11;10.50;84.70
680;DHT22;322;48.846;9.230;2023-04-25T06:59:37;10.60;80.00
680;DHT22;322;48.846;9.230;2023-04-25T07:02:04;10.60;80.30
680;DHT22;322;48.846;9.230;2023-04-25T07:04:32;10.70;81.30
680;DHT22;322;48.846;9.230;2023-04-25T07:07:00;10.60;79.60
680;DHT22;322;48.846;9.230;2023-04-25T07:09:28;10.70;79.20
680;DHT22;322;48.846;9.230;2023-04-25T07:11:55;10.60;80.60
680;DHT22;322;48.846;9.230;2023-04-25T07:14:22;10.50;81.00
680;DHT22;322;48.846;9.230;2023-04-25T07:16:49;10.30;81.10
680;DHT22;322;48.846;9.230;2023-04-25T07:19:16;10.30;80.80
680;DHT22;322;48.846;9.230;2023-04-25T07:21:43;10.20;81.50
680;DHT22;322;48.846;9.230;2023-04-25T07:24:11;10.10;82.50
680;DHT22;322;48.846;9.230;2023-04-25T07:26:38;10.10;81.60
680;DHT22;322;48.846;9.230;2023-04-25T07:29:04;10.20;84.00
680;DHT22;322;48.846;9.230;2023-04-25T07:31:31;10.20;83.30
680;DHT22;322;48.846;9.230;2023-04-25T07:33:58;10.10;81.80
680;DHT22;322;48.846;9.230;2023-04-25T07:36:25;10.00;81.20
680;DHT22;322;48.846;9.230;2023-04-25T07:38:52;9.90;84.30
680;DHT22;322;48.846;9.230;2023-04-25T07:41:20;9.80;86.80
680;DHT22;322;48.846;9.230;2023-04-25T07:43:47;9.70;86.80
680;DHT22;322;48.846;9.230;2023-04-25T07:46:14;9.70;87.10
680;DHT22;322;48.846;9.230;2023-04-25T07:48:41;9.60;88.30
680;DHT22;322;48.846;9.230;2023-04-25T07:51:08;9.60;87.90
680;DHT22;322;48.846;9.230;2023-04-25T07:53:34;9.60;89.90
680;DHT22;322;48.846;9.230;2023-04-25T07:56:03;9.60;90.50
680;DHT22;322;48.846;9.230;2023-04-25T07:58:31;9.50;90.40
680;DHT22;322;48.846;9.230;2023-04-25T08:00:58;9.30;91.00
680;DHT22;322;48.846;9.230;2023-04-25T08:03:25;9.20;91.90
680;DHT22;322;48.846;9.230;2023-04-25T08:05:52;9.10;92.10
680;DHT22;322;48.846;9.230;2023-04-25T08:08:19;8.90;93.70
680;DHT22;322;48.846;9.230;2023-04-25T08:10:45;8.80;94.60
680;DHT22;322;48.846;9.230;2023-04-25T08:13:13;8.70;95.80
680;DHT22;322;48.846;9.230;2023-04-25T08:15:41;8.60;96.60
680;DHT22;322;48.846;9.230;2023-04-25T08:18:08;8.60;97.30
680;DHT22;322;48.846;9.230;2023-04-25T08:20:35;8.50;97.30
680;DHT22;322;48.846;9.230;2023-04-25T08:23:02;8.50;97.20
680;DHT22;322;48.846;9.230;2023-04-25T08:25:29;8.40;96.30
680;DHT22;322;48.846;9.230;2023-04-25T08:27:56;8.30;95.90
680;DHT22;322;48.846;9.230;2023-04-25T08:30:25;8.30;96.70
680;DHT22;322;48.846;9.230;2023-04-25T08:32:53;8.40;98.10
680;DHT22;322;48.846;9.230;2023-04-25T08:35:20;8.50;98.10
680;DHT22;322;48.846;9.230;2023-04-25T08:37:47;8.70;98.20
680;DHT22;322;48.846;9.230;2023-04-25T08:40:15;8.90;98.10
680;DHT22;322;48.846;9.230;2023-04-25T08:42:42;9.00;98.80
680;DHT22;322;48.846;9.230;2023-04-25T08:45:10;9.10;97.60
680;DHT22;322;48.846;9.230;2023-04-25T08:47:38;9.20;97.10
680;DHT22;322;48.846;9.230;2023-04-25T08:50:08;9.00;96.40
680;DHT22;322;48.846;9.230;2023-04-25T08:52:37;8.80;97.50
680;DHT22;322;48.846;9.230;2023-04-25T08:55:07;8.50;97.90
680;DHT22;322;48.846;9.230;2023-04-25T08:57:37;8.40;97.10
680;DHT22;322;48.846;9.230;2023-04-25T09:00:04;8.30;97.10
680;DHT22;322;48.846;9.230;2023-04-25T09:02:33;8.20;98.10
680;DHT22;322;48.846;9.230;2023-04-25T09:05:01;8.10;98.50
680;DHT22;322;48.846;9.230;2023-04-25T09:07:31;8.10;99.50
680;DHT22;322;48.846;9.230;2023-04-25T09:09:57;8.10;99.50
680;DHT22;322;48.846;9.230;2023-04-25T09:12:26;8.10;99.50
680;DHT22;322;48.846;9.230;2023-04-25T09:15:03;8.10;99.30
680;DHT22;322;48.846;9.230;2023-04-25T09:17:30;8.00;99.30
680;DHT22;322;48.846;9.230;2023-04-25T09:20:08;8.00;99.10
680;DHT22;322;48.846;9.230;2023-04-25T09:22:37;8.10;99.10
680;DHT22;322;48.846;9.230;2023-04-25T09:25:08;8.10;99.20
680;DHT22;322;48.846;9.230;2023-04-25T09:27:35;8.20;99.30
680;DHT22;322;48.846;9.230;2023-04-25T09:30:03;8.10;98.80
680;DHT22;322;48.846;9.230;2023-04-25T09:32:30;8.20;98.70
680;DHT22;322;48.846;9.230;2023-04-25T09:35:00;8.10;98.70
680;DHT22;322;48.846;9.230;2023-04-25T09:37:28;8.20;99.40
680;DHT22;322;48.846;9.230;2023-04-25T09:39:58;8.20;99.70
680;DHT22;322;48.846;9.230;2023-04-25T09:42:28;8.30;99.10
680;DHT22;322;48.846;9.230;2023-04-25T09:44:57;8.20;98.30
680;DHT22;322;48.846;9.230;2023-04-25T09:47:27;8.10;97.80
680;DHT22;322;48.846;9.230;2023-04-25T09:49:55;8.00;98.90
680;DHT22;322;48.846;9.230;2023-04-25T09:52:23;8.00;99.50
680;DHT22;322;48.846;9.230;2023-04-25T09:54:50;8.00;99.30
680;DHT22;322;48.846;9.230;2023-04-25T09:57:20;8.00;99.20
680;DHT22;322;48.846;9.230;2023-04-25T09:59:48;8.00;99.30
680;DHT22;322;48.846;9.230;2023-04-25T10:02:17;8.00;99.30
680;DHT22;322;48.846;9.230;2023-04-25T10:04:47;8.00;99.40
680;DHT22;322;48.846;9.230;2023-04-25T10:07:16;8.10;99.20
680;DHT22;322;48.846;9.230;2023-04-25T10:09:44;8.10;98.90
680;DHT22;322;48.846;9.230;2023-04-25T10:12:13;8.10;98.90
680;DHT22;322;48.846;9.230;2023-04-25T10:14:42;8.10;98.60
680;DHT22;322;48.846;9.230;2023-04-25T10:17:10;8.00;98.30
680;DHT22;322;48.846;9.230;2023-04-25T10:19:38;8.00;98.30
680;DHT22;322;48.846;9.230;2023-04-25T10:22:08;7.90;98.60
680;DHT22;322;48.846;9.230;2023-04-25T10:24:39;7.70;98.90
680;DHT22;322;48.846;9.230;2023-04-25T10:27:06;7.70;99.00
680;DHT22;322;48.846;9.230;2023-04-25T10:29:34;7.40;98.20
680;DHT22;322;48.846;9.230;2023-04-25T10:32:03;7.20;98.70
680;DHT22;322;48.846;9.230;2023-04-25T10:34:41;7.00;99.30
680;DHT22;322;48.846;9.230;2023-04-25T10:37:11;6.90;99.20
680;DHT22;322;48.846;9.230;2023-04-25T10:39:39;6.90;99.50
680;DHT22;322;48.846;9.230;2023-04-25T10:42:07;6.80;99.50
680;DHT22;322;48.846;9.230;2023-04-25T10:44:35;6.80;99.80
680;DHT22;322;48.846;9.230;2023-04-25T10:47:06;6.80;99.90
680;DHT22;322;48.846;9.230;2023-04-25T10:49:35;6.80;99.90
680;DHT22;322;48.846;9.230;2023-04-25T10:52:14;6.80;99.90
680;DHT22;322;48.846;9.230;2023-04-25T10:54:42;6.80;99.90
680;DHT22;322;48.846;9.230;2023-04-25T10:57:31;6.90;99.90
680;DHT22;322;48.846;9.230;2023-04-25T11:00:00;7.00;99.90
680;DHT22;322;48.846;9.230;2023-04-25T11:02:32;7.10;99.90
680;DHT22;322;48.846;9.230;2023-04-25T11:05:03;7.00;99.90
680;DHT22;322;48.846;9.230;2023-04-25T11:07:35;7.10;99.90
680;DHT22;322;48.846;9.230;2023-04-25T11:10:05;7.10;99.90
680;DHT22;322;48.846;9.230;2023-04-25T11:12:32;7.20;99.90
680;DHT22;322;48.846;9.230;2023-04-25T11:15:00;7.30;99.90
680;DHT22;322;48.846;9.230;2023-04-25T11:17:28;7.50;99.90
680;DHT22;322;48.846;9.230;2023-04-25T11:19:56;7.60;99.60
680;DHT22;322;48.846;9.230;2023-04-25T11:22:23;7.80;98.90
680;DHT22;322;48.846;9.230;2023-04-25T11:24:50;7.90;98.70
680;DHT22;322;48.846;9.230;2023-04-25T11:27:17;8.00;99.10
680;DHT22;322;48.846;9.230;2023-04-25T11:29:44;8.10;98.80
680;DHT22;322;48.846;9.230;2023-04-25T11:32:14;8.30;98.10
680;DHT22;322;48.846;9.230;2023-04-25T11:34:43;8.40;97.10
680;DHT22;322;48.846;9.230;2023-04-25T11:37:12;8.40;96.50
680;DHT22;322;48.846;9.230;2023-04-25T11:39:43;8.40;97.60
680;DHT22;322;48.846;9.230;2023-04-25T11:42:10;8.40;97.20
680;DHT22;322;48.846;9.230;2023-04-25T11:44:38;8.40;96.90
680;DHT22;322;48.846;9.230;2023-04-25T11:47:05;8.40;97.00
680;DHT22;322;48.846;9.230;2023-04-25T11:49:32;8.30;98.00
680;DHT22;322;48.846;9.230;2023-04-25T11:52:00;8.30;98.30
680;DHT22;322;48.846;9.230;2023-04-25T11:54:28;8.70;98.00
680;DHT22;322;48.846;9.230;2023-04-25T11:56:55;8.80;96.70
680;DHT22;322;48.846;9.230;2023-04-25T11:59:24;8.80;97.30
680;DHT22;322;48.846;9.230;2023-04-25T12:01:52;8.90;97.20
680;DHT22;322;48.846;9.230;2023-04-25T12:04:20;9.00;96.60
680;DHT22;322;48.846;9.230;2023-04-25T12:06:48;9.00;97.80
680;DHT22;322;48.846;9.230;2023-04-25T12:09:17;8.90;96.30
680;DHT22;322;48.846;9.230;2023-04-25T12:11:46;8.70;96.10
680;DHT22;322;48.846;9.230;2023-04-25T12:14:21;8.60;97.90
680;DHT22;322;48.846;9.230;2023-04-25T12:16:49;8.60;97.40
680;DHT22;322;48.846;9.230;2023-04-25T12:19:17;8.60;97.40
680;DHT22;322;48.846;9.230;2023-04-25T12:21:44;8.60;97.60
680;DHT22;322;48.846;9.230;2023-04-25T12:24:13;8.60;97.40
680;DHT22;322;48.846;9.230;2023-04-25T12:26:48;8.50;97.20
680;DHT22;322;48.846;9.230;2023-04-25T12:29:20;8.40;97.40
680;DHT22;322;48.846;9.230;2023-04-25T12:31:47;8.30;97.50
680;DHT22;322;48.846;9.230;2023-04-25T12:34:15;8.20;97.70
680;DHT22;322;48.846;9.230;2023-04-25T12:36:42;8.20;98.30
680;DHT22;322;48.846;9.230;2023-04-25T12:39:11;8.20;98.70
680;DHT22;322;48.846;9.230;2023-04-25T12:41:41;8.40;98.30
680;DHT22;322;48.846;9.230;2023-04-25T12:44:09;8.80;98.80
680;DHT22;322;48.846;9.230;2023-04-25T12:46:36;9.30;98.60
680;DHT22;322;48.846;9.230;2023-04-25T12:49:03;9.80;98.60
680;DHT22;322;48.846;9.230;2023-04-25T12:51:31;10.60;95.80
680;DHT22;322;48.846;9.230;2023-04-25T12:53:58;11.40;95.80
680;DHT22;322;48.846;9.230;2023-04-25T12:56:25;11.80;93.70
680;DHT22;322;48.846;9.230;2023-04-25T12:58:52;11.70;91.20
680;DHT22;322;48.846;9.230;2023-04-25T13:01:21;11.40;92.30
680;DHT22;322;48.846;9.230;2023-04-25T13:03:48;11.50;93.30
680;DHT22;322;48.846;9.230;2023-04-25T13:06:15;11.60;90.70
680;DHT22;322;48.846;9.230;2023-04-25T13:08:43;12.00;87.20
680;DHT22;322;48.846;9.230;2023-04-25T13:11:10;12.50;89.40
680;DHT22;322;48.846;9.230;2023-04-25T13:13:37;13.10;87.80
680;DHT22;322;48.846;9.230;2023-04-25T13:16:06;13.70;86.80
680;DHT22;322;48.846;9.230;2023-04-25T13:18:35;14.40;78.30
680;DHT22;322;48.846;9.230;2023-04-25T13:21:02;13.80;75.60
680;DHT22;322;48.846;9.230;2023-04-25T13:23:30;13.10;80.60
680;DHT22;322;48.846;9.230;2023-04-25T13:25:57;12.40;83.50
680;DHT22;322;48.846;9.230;2023-04-25T13:28:24;12.00;85.20
680;DHT22;322;48.846;9.230;2023-04-25T13:30:51;11.90;88.50
680;DHT22;322;48.846;9.230;2023-04-25T13:33:18;11.80;88.40
680;DHT22;322;48.846;9.230;2023-04-25T13:35:47;11.60;88.60
680;DHT22;322;48.846;9.230;2023-04-25T13:38:19;11.60;89.90
680;DHT22;322;48.846;9.230;2023-04-25T13:40:47;11.40;85.20
680;DHT22;322;48.846;9.230;2023-04-25T13:43:14;11.20;89.90
680;DHT22;322;48.846;9.230;2023-04-25T13:45:41;11.00;89.50
680;DHT22;322;48.846;9.230;2023-04-25T13:48:07;10.90;89.10
680;DHT22;322;48.846;9.230;2023-04-25T13:50:34;10.80;90.40
680;DHT22;322;48.846;9.230;2023-04-25T13:53:03;10.70;90.30
680;DHT22;322;48.846;9.230;2023-04-25T13:55:30;10.70;90.40
680;DHT22;322;48.846;9.230;2023-04-25T13:57:57;11.00;89.30
680;DHT22;322;48.846;9.230;2023-04-25T14:00:24;11.50;87.60
680;DHT22;322;48.846;9.230;2023-04-25T14:02:51;12.60;81.70
680;DHT22;322;48.846;9.230;2023-04-25T14:05:19;13.70;79.70
680;DHT22;322;48.846;9.230;2023-04-25T14:07:45;14.70;72.20
680;DHT22;322;48.846;9.230;2023-04-25T14:10:14;15.10;68.50
680;DHT22;322;48.846;9.230;2023-04-25T14:12:41;13.90;64.80
680;DHT22;322;48.846;9.230;2023-04-25T14:15:08;12.80;72.50
680;DHT22;322;48.846;9.230;2023-04-25T14:17:36;12.30;76.10
680;DHT22;322;48.846;9.230;2023-04-25T14:20:03;12.20;78.50
680;DHT22;322;48.846;9.230;2023-04-25T14:22:31;12.30;78.90
680;DHT22;322;48.846;9.230;2023-04-25T14:24:58;12.60;75.60
680;DHT22;322;48.846;9.230;2023-04-25T14:27:26;12.50;75.80
680;DHT22;322;48.846;9.230;2023-04-25T14:29:53;12.40;76.10
680;DHT22;322;48.846;9.230;2023-04-25T14:32:20;12.50;76.90
680;DHT22;322;48.846;9.230;2023-04-25T14:34:47;13.30;72.80
680;DHT22;322;48.846;9.230;2023-04-25T14:37:15;13.90;71.10
680;DHT22;322;48.846;9.230;2023-04-25T14:39:41;13.30;68.60
680;DHT22;322;48.846;9.230;2023-04-25T14:42:08;12.50;72.80
680;DHT22;322;48.846;9.230;2023-04-25T14:44:38;12.40;75.80
680;DHT22;322;48.846;9.230;2023-04-25T14:47:05;12.60;75.30
680;DHT22;322;48.846;9.230;2023-04-25T14:49:32;12.30;70.60
680;DHT22;322;48.846;9.230;2023-04-25T14:51:59;12.30;73.70
680;DHT22;322;48.846;9.230;2023-04-25T14:54:26;12.80;70.60
680;DHT22;322;48.846;9.230;2023-04-25T14:56:53;13.30;73.70
680;DHT22;322;48.846;9.230;2023-04-25T14:59:20;13.60;66.70
680;DHT22;322;48.846;9.230;2023-04-25T15:01:49;13.10;70.40
680;DHT22;322;48.846;9.230;2023-04-25T15:04:16;12.80;72.40
680;DHT22;322;48.846;9.230;2023-04-25T15:06:43;12.80;69.50
680;DHT22;322;48.846;9.230;2023-04-25T15:09:10;12.50;70.60
680;DHT22;322;48.846;9.230;2023-04-25T15:11:37;12.30;72.50
680;DHT22;322;48.846;9.230;2023-04-25T15:14:04;12.80;72.70
680;DHT22;322;48.846;9.230;2023-04-25T15:16:31;13.10;69.40
680;DHT22;322;48.846;9.230;2023-04-25T15:18:59;12.80;67.90
680;DHT22;322;48.846;9.230;2023-04-25T15:21:29;12.80;66.80
680;DHT22;322;48.846;9.230;2023-04-25T15:23:56;12.60;66.20
680;DHT22;322;48.846;9.230;2023-04-25T15:26:23;12.50;68.60
680;DHT22;322;48.846;9.230;2023-04-25T15:28:50;12.10;68.80
680;DHT22;322;48.846;9.230;2023-04-25T15:31:18;12.00;71.10
680;DHT22;322;48.846;9.230;2023-04-25T15:33:44;12.00;71.00
680;DHT22;322;48.846;9.230;2023-04-25T15:36:14;12.00;68.80
680;DHT22;322;48.846;9.230;2023-04-25T15:38:42;12.00;71.00
680;DHT22;322;48.846;9.230;2023-04-25T15:41:08;12.10;71.10
680;DHT22;322;48.846;9.230;2023-04-25T15:43:35;12.30;77.90
680;DHT22;322;48.846;9.230;2023-04-25T15:46:03;12.50;71.10
680;DHT22;322;48.846;9.230;2023-04-25T15:48:30;12.60;68.90
680;DHT22;322;48.846;9.230;2023-04-25T15:50:57;12.50;68.90
680;DHT22;322;48.846;9.230;2023-04-25T15:53:26;12.40;69.50
680;DHT22;322;48.846;9.230;2023-04-25T15:55:52;12.20;68.70
680;DHT22;322;48.846;9.230;2023-04-25T15:58:19;11.90;70.80
680;DHT22;322;48.846;9.230;2023-04-25T16:00:46;11.70;71.20
680;DHT22;322;48.846;9.230;2023-04-25T16:03:15;11.60;73.90
680;DHT22;322;48.846;9.230;2023-04-25T16:05:42;11.60;76.00
680;DHT22;322;48.846;9.230;2023-04-25T16:08:09;11.90;73.40
680;DHT22;322;48.846;9.230;2023-04-25T16:10:37;12.40;72.90
680;DHT22;322;48.846;9.230;2023-04-25T16:13:04;12.50;69.40
680;DHT22;322;48.846;9.230;2023-04-25T16:15:31;12.30;68.10
680;DHT22;322;48.846;9.230;2023-04-25T16:17:58;12.00;72.50
680;DHT22;322;48.846;9.230;2023-04-25T16:20:25;11.70;70.30
680;DHT22;322;48.846;9.230;2023-04-25T16:22:52;11.50;72.50
680;DHT22;322;48.846;9.230;2023-04-25T16:25:19;11.30;73.40
680;DHT22;322;48.846;9.230;2023-04-25T16:27:47;11.40;73.30
680;DHT22;322;48.846;9.230;2023-04-25T16:30:14;11.60;72.20
680;DHT22;322;48.846;9.230;2023-04-25T16:32:42;11.80;72.50
680;DHT22;322;48.846;9.230;2023-04-25T16:35:09;11.90;73.10
680;DHT22;322;48.846;9.230;2023-04-25T16:37:36;12.00;71.60
680;DHT22;322;48.846;9.230;2023-04-25T16:40:03;11.90;72.10
680;DHT22;322;48.846;9.230;2023-04-25T16:42:30;11.70;73.00
680;DHT22;322;48.846;9.230;2023-04-25T16:44:59;11.50;71.70
680;DHT22;322;48.846;9.230;2023-04-25T16:47:25;11.40;74.40
680;DHT22;322;48.846;9.230;2023-04-25T16:49:52;11.30;76.00